Time;durP1;ratioP1;P1;durP2;ratioP2;P2;SDS_P1;SDS_P2;PMS_P1;PMS_P2;Temp;Humidity;BMP_temperature;BMP_pressure;BME280_temperature;BME280_humidity;BME280_pressure;Samples;Min_cycle;Max_cycle;Signal;HPM_P1;HPM_P2
2021/09/01 00:00:32;;;;;;;;;0.00;0.00;;;;;18.06;61.18;102305.75;5020510;28;45378;-80
2021/09/01 00:02:57;;;;;;;;;0.00;0.00;;;;;17.96;61.59;102310.13;5020878;28;45591;-80
2021/09/01 00:05:22;;;;;;;;;0.00;0.00;;;;;17.93;62.29;102310.13;5003181;28;45611;-80
2021/09/01 00:07:48;;;;;;;;;1.25;1.25;;;;;17.91;61.55;102295.16;5047258;27;47495;-80
2021/09/01 00:10:13;;;;;;;;;0.75;0.50;;;;;17.85;62.40;102293.38;5020038;28;45342;-80
2021/09/01 00:12:39;;;;;;;;;0.50;0.50;;;;;17.83;62.08;102296.03;5020618;27;45448;-80
2021/09/01 00:15:06;;;;;;;;;0.00;0.00;;;;;17.82;62.28;102290.75;5017640;27;45626;-81
2021/09/01 00:17:31;;;;;;;;;1.00;1.00;;;;;17.69;62.20;102267.03;5020861;28;46373;-80
2021/09/01 00:19:57;;;;;;;;;2.00;0.00;;;;;17.73;62.00;102274.06;5021907;27;45306;-80
2021/09/01 00:22:22;;;;;;;;;0.00;0.00;;;;;17.76;62.30;102281.06;5023071;27;45361;-80
2021/09/01 00:24:47;;;;;;;;;0.75;0.00;;;;;17.71;62.31;102280.19;5019959;28;45542;-79
2021/09/01 00:27:13;;;;;;;;;0.00;0.00;;;;;17.83;62.05;102289.91;5020907;28;45589;-80
2021/09/01 00:29:39;;;;;;;;;1.25;0.25;;;;;17.80;62.30;102288.09;5053074;27;45301;-80
2021/09/01 00:32:05;;;;;;;;;0.00;0.00;;;;;17.72;62.73;102280.22;5022839;27;45254;-80
2021/09/01 00:34:30;;;;;;;;;1.00;1.00;;;;;17.63;62.71;102280.16;5013885;27;45521;-80
2021/09/01 00:36:56;;;;;;;;;0.00;0.00;;;;;17.71;62.87;102298.63;5023309;27;45492;-80
2021/09/01 00:39:21;;;;;;;;;1.00;1.00;;;;;17.73;62.39;102302.13;5030289;27;45335;-80
2021/09/01 00:41:47;;;;;;;;;2.00;0.00;;;;;17.38;63.12;102253.75;5020132;28;45732;-79
2021/09/01 00:44:25;;;;;;;;;0.50;0.00;;;;;17.29;63.88;102258.97;5099714;27;45436;-80
2021/09/01 00:46:52;;;;;;;;;1.00;1.00;;;;;17.48;63.09;102313.47;5025331;28;45375;-80
2021/09/01 00:49:17;;;;;;;;;0.25;0.25;;;;;17.31;63.60;102299.34;5023247;27;45364;-80
2021/09/01 00:51:44;;;;;;;;;2.00;0.75;;;;;17.17;63.84;102293.97;5043136;27;45540;-80
2021/09/01 00:54:13;;;;;;;;;0.00;0.00;;;;;17.10;64.16;102275.53;5021327;28;45505;-80
2021/09/01 00:56:43;;;;;;;;;0.50;0.50;;;;;17.28;64.38;102292.31;5020173;27;45389;-80
2021/09/01 00:59:11;;;;;;;;;1.00;1.00;;;;;17.48;64.09;102323.09;5017825;27;45362;-80
2021/09/01 01:01:37;;;;;;;;;0.00;0.00;;;;;17.41;63.71;102314.31;5085546;27;45428;-81
2021/09/01 01:04:02;;;;;;;;;1.75;0.00;;;;;17.36;63.11;102302.84;5056731;27;45450;-79
2021/09/01 01:06:29;;;;;;;;;0.00;0.00;;;;;17.29;63.89;102287.91;5018545;28;45535;-80
2021/09/01 01:08:55;;;;;;;;;0.00;0.00;;;;;17.14;63.79;102262.38;5080761;27;45380;-80
2021/09/01 01:11:22;;;;;;;;;0.00;0.00;;;;;17.46;64.01;102323.09;5029968;27;45297;-79
2021/09/01 01:13:49;;;;;;;;;0.00;0.00;;;;;17.43;63.57;102317.81;5047305;27;45767;-80
2021/09/01 01:16:16;;;;;;;;;0.00;0.00;;;;;16.80;64.24;102216.59;5006141;28;48405;-80
2021/09/01 01:18:45;;;;;;;;;0.00;0.00;;;;;17.38;64.36;102311.66;5012928;28;45313;-79
2021/09/01 01:21:12;;;;;;;;;0.00;0.00;;;;;17.29;64.03;102291.44;5025572;28;45243;-81
2021/09/01 01:23:38;;;;;;;;;0.00;0.00;;;;;17.43;63.94;102322.22;5021165;27;45320;-80
2021/09/01 01:26:03;;;;;;;;;0.00;0.00;;;;;17.13;63.63;102272.06;5026171;27;45432;-79
2021/09/01 01:28:28;;;;;;;;;1.00;0.00;;;;;17.20;64.14;102275.59;5008816;28;45523;-80
2021/09/01 01:30:54;;;;;;;;;1.00;1.00;;;;;17.21;64.19;102280.84;5088628;27;45520;-79
2021/09/01 01:33:19;;;;;;;;;2.00;0.00;;;;;17.31;63.96;102308.09;5022075;27;45267;-80
2021/09/01 01:35:45;;;;;;;;;2.00;0.00;;;;;17.16;64.44;102282.59;5051155;27;47147;-80
2021/09/01 01:38:19;;;;;;;;;0.00;0.00;;;;;17.38;64.26;102306.38;5070818;27;45347;-80
2021/09/01 01:40:46;;;;;;;;;1.00;1.00;;;;;17.41;64.35;102305.50;5039396;27;45435;-80
2021/09/01 01:43:12;;;;;;;;;1.00;0.00;;;;;17.40;64.05;102299.34;5025920;27;45357;-80
2021/09/01 01:45:40;;;;;;;;;0.00;0.00;;;;;17.43;64.64;102312.53;5024433;28;46827;-79
2021/09/01 01:48:07;;;;;;;;;0.00;0.00;;;;;17.32;64.20;102301.97;5098923;27;45863;-80
2021/09/01 01:50:33;;;;;;;;;0.25;0.00;;;;;17.42;63.86;102308.16;5026542;28;45739;-80
2021/09/01 01:52:59;;;;;;;;;0.00;0.00;;;;;17.09;64.07;102254.50;5083342;27;45572;-80
2021/09/01 01:55:24;;;;;;;;;0.25;0.00;;;;;16.93;63.88;102235.06;5034405;27;48000;-80
2021/09/01 01:57:50;;;;;;;;;0.00;0.00;;;;;17.35;64.37;102304.63;5022226;28;45417;-80
2021/09/01 02:00:16;;;;;;;;;0.00;0.00;;;;;17.13;64.23;102272.06;5070615;27;45388;-80
2021/09/01 02:02:42;;;;;;;;;0.50;0.25;;;;;17.22;64.26;102292.28;5009356;27;45732;-80
2021/09/01 02:05:08;;;;;;;;;0.00;0.00;;;;;17.08;64.55;102263.25;5018343;28;45276;-78
2021/09/01 02:07:35;;;;;;;;;0.25;0.25;;;;;17.33;64.49;102302.84;5034592;27;45359;-79
2021/09/01 02:10:00;;;;;;;;;2.75;0.75;;;;;17.16;64.60;102282.59;5017815;28;45361;-78
2021/09/01 02:12:29;;;;;;;;;0.25;0.25;;;;;17.05;64.12;102271.06;5016491;28;45463;-79
2021/09/01 02:14:55;;;;;;;;;0.00;0.00;;;;;17.23;64.43;102309.81;5017564;28;45716;-79
2021/09/01 02:17:21;;;;;;;;;0.00;0.00;;;;;17.05;64.61;102302.63;5094487;27;45464;-79
2021/09/01 02:19:46;;;;;;;;;1.00;0.00;;;;;17.02;64.48;102289.47;5017388;27;45386;-79
2021/09/01 02:22:11;;;;;;;;;2.75;1.50;;;;;17.09;64.48;102299.22;5061033;27;45539;-79
2021/09/01 02:24:37;;;;;;;;;0.00;0.00;;;;;17.19;64.44;102319.47;5014107;27;46929;-80
2021/09/01 02:27:02;;;;;;;;;0.25;0.25;;;;;17.06;64.54;102307.06;5017880;28;45384;-79
2021/09/01 02:29:28;;;;;;;;;0.50;0.00;;;;;17.05;64.70;102305.28;5089445;27;45428;-80
2021/09/01 02:31:53;;;;;;;;;1.50;0.00;;;;;17.08;64.78;102316.75;5017886;28;45450;-79
2021/09/01 02:34:18;;;;;;;;;0.00;0.00;;;;;17.10;64.60;102309.72;5017184;28;46689;-80
2021/09/01 02:36:44;;;;;;;;;0.50;0.25;;;;;17.19;64.76;102314.19;5017202;28;45379;-79
2021/09/01 02:39:09;;;;;;;;;0.00;0.00;;;;;17.12;65.06;102306.25;5016714;27;45369;-78
2021/09/01 02:41:34;;;;;;;;;1.75;0.00;;;;;17.18;64.57;102312.41;5017878;28;45396;-78
2021/09/01 02:44:00;;;;;;;;;0.00;0.00;;;;;16.99;64.70;102285.06;5017161;28;46620;-78
2021/09/01 02:46:25;;;;;;;;;0.25;0.00;;;;;17.15;64.55;102325.53;5015217;27;45670;-78
2021/09/01 02:48:50;;;;;;;;;0.50;0.00;;;;;16.86;64.66;102273.59;5020742;27;45340;-79
2021/09/01 02:51:16;;;;;;;;;1.00;1.00;;;;;17.05;64.87;102302.63;5020820;28;45455;-79
2021/09/01 02:53:42;;;;;;;;;3.00;2.00;;;;;17.01;64.83;102308.75;5048241;27;47386;-81
2021/09/01 02:56:07;;;;;;;;;0.00;0.00;;;;;16.94;65.08;102311.34;5095176;27;45394;-79
2021/09/01 02:58:32;;;;;;;;;0.00;0.00;;;;;16.84;65.11;102305.16;5020190;28;45337;-78
2021/09/01 03:00:58;;;;;;;;;0.00;0.00;;;;;16.93;65.11;102311.31;5020583;28;45379;-79
2021/09/01 03:03:23;;;;;;;;;0.25;0.25;;;;;16.96;65.38;102314.88;5019833;27;45478;-79
2021/09/01 03:05:49;;;;;;;;;0.00;0.00;;;;;16.93;64.94;102306.06;5042716;27;45394;-79
2021/09/01 03:08:15;;;;;;;;;2.75;1.25;;;;;17.01;64.86;102324.53;5065928;27;45459;-79
2021/09/01 03:10:40;;;;;;;;;1.00;1.00;;;;;16.92;65.34;102321.00;5020224;28;45388;-80
2021/09/01 03:13:05;;;;;;;;;0.00;0.00;;;;;16.81;65.20;102302.50;5020159;28;45428;-79
2021/09/01 03:15:31;;;;;;;;;0.00;0.00;;;;;16.77;65.28;102303.34;5020026;27;45419;-78
2021/09/01 03:17:57;;;;;;;;;0.00;0.00;;;;;16.83;64.92;102306.03;5020113;28;45279;-79
2021/09/01 03:20:23;;;;;;;;;1.00;1.00;;;;;16.95;65.02;102323.66;5072055;27;45618;-80
2021/09/01 03:22:48;;;;;;;;;0.00;0.00;;;;;16.76;64.72;102298.06;5003437;27;48581;-80
2021/09/01 03:25:13;;;;;;;;;0.00;0.00;;;;;16.67;65.32;102278.72;5022338;27;45429;-79
2021/09/01 03:27:39;;;;;;;;;3.25;0.00;;;;;16.84;65.50;102320.03;5049843;27;45409;-80
2021/09/01 03:30:05;;;;;;;;;0.00;0.00;;;;;16.84;65.26;102330.56;5020080;27;45388;-80
2021/09/01 03:32:30;;;;;;;;;0.25;0.25;;;;;16.57;65.48;102290.03;5019076;28;46667;-80
2021/09/01 03:34:56;;;;;;;;;1.50;0.00;;;;;16.65;65.76;102301.50;5019620;28;45366;-80
2021/09/01 03:37:21;;;;;;;;;1.00;1.00;;;;;16.59;65.76;102294.44;5019679;27;45376;-80
2021/09/01 03:39:46;;;;;;;;;1.00;1.00;;;;;16.73;65.15;102319.97;5019541;28;45649;-80
2021/09/01 03:42:12;;;;;;;;;3.25;0.00;;;;;16.62;65.43;102309.34;5017989;28;48214;-80
2021/09/01 03:44:38;;;;;;;;;1.50;0.25;;;;;16.63;65.58;102319.00;5019110;28;45343;-79
2021/09/01 03:47:03;;;;;;;;;1.00;1.00;;;;;16.41;65.94;102297.78;5019604;28;45443;-80
2021/09/01 03:49:29;;;;;;;;;1.00;0.50;;;;;16.38;65.73;102289.88;5032694;27;45693;-80
2021/09/01 03:51:54;;;;;;;;;1.00;1.00;;;;;16.42;65.94;102296.91;5037853;27;47119;-80
2021/09/01 03:54:19;;;;;;;;;1.50;0.50;;;;;16.62;65.83;102338.28;5019103;28;45395;-80
2021/09/01 03:56:45;;;;;;;;;1.75;0.00;;;;;16.60;65.53;102324.22;5001704;27;45474;-80
2021/09/01 03:59:10;;;;;;;;;2.25;0.25;;;;;16.48;65.94;102319.75;5019944;28;45441;-80
2021/09/01 04:01:36;;;;;;;;;1.75;1.25;;;;;16.09;66.15;102246.69;5037273;27;47401;-81
2021/09/01 04:04:02;;;;;;;;;3.00;0.00;;;;;16.24;65.86;102273.09;5032893;27;45577;-80
2021/09/01 04:06:27;;;;;;;;;1.50;1.00;;;;;16.43;65.77;102295.16;5018784;27;45358;-80
2021/09/01 04:08:53;;;;;;;;;1.00;1.00;;;;;16.69;65.29;102345.34;5019375;28;45377;-81
2021/09/01 04:11:18;;;;;;;;;1.00;0.50;;;;;16.58;65.93;102316.34;5063645;27;48598;-79
2021/09/01 04:13:43;;;;;;;;;1.25;0.00;;;;;16.46;65.52;102298.72;5018990;28;45210;-79
2021/09/01 04:16:09;;;;;;;;;0.25;0.25;;;;;16.47;66.10;102310.09;5019024;28;45352;-79
2021/09/01 04:18:35;;;;;;;;;2.25;1.00;;;;;16.39;66.17;102290.75;5033633;27;45385;-79
2021/09/01 04:21:00;;;;;;;;;0.00;0.00;;;;;16.50;66.26;102296.09;5075962;27;47304;-79
2021/09/01 04:23:26;;;;;;;;;0.00;0.00;;;;;16.68;65.87;102329.56;5039771;27;46114;-80
2021/09/01 04:25:51;;;;;;;;;1.75;0.00;;;;;16.57;65.65;102321.59;5048201;27;45587;-79
2021/09/01 04:28:17;;;;;;;;;3.00;2.00;;;;;16.46;66.11;102322.38;5017916;28;45319;-80
2021/09/01 04:30:42;;;;;;;;;2.75;1.00;;;;;16.49;65.92;102326.78;5118647;27;47212;-80
2021/09/01 04:33:07;;;;;;;;;1.00;0.25;;;;;16.39;66.31;102302.16;5018595;28;45306;-80
2021/09/01 04:35:33;;;;;;;;;1.25;1.25;;;;;16.49;65.57;102325.88;5018840;27;45465;-79
2021/09/01 04:37:58;;;;;;;;;1.00;1.00;;;;;16.50;66.12;102335.50;5087133;27;45460;-79
2021/09/01 04:40:23;;;;;;;;;0.00;0.00;;;;;16.47;66.43;102325.88;5018333;28;45448;-79
2021/09/01 04:42:48;;;;;;;;;4.25;0.00;;;;;16.53;66.19;102339.06;5018289;27;45436;-79
2021/09/01 04:45:14;;;;;;;;;1.50;1.50;;;;;16.52;66.13;102344.31;5018911;28;45298;-80
2021/09/01 04:47:39;;;;;;;;;2.00;0.00;;;;;16.45;65.82;102325.84;5018920;28;45634;-79
2021/09/01 04:50:05;;;;;;;;;2.00;0.00;;;;;16.23;65.91;102301.09;5009508;27;47337;-79
2021/09/01 04:52:31;;;;;;;;;1.00;1.00;;;;;16.45;66.31;102336.34;5075261;27;45579;-79
2021/09/01 04:54:57;;;;;;;;;2.75;1.00;;;;;16.49;66.12;102345.16;5018289;28;45370;-79
2021/09/01 04:57:22;;;;;;;;;2.00;0.50;;;;;16.50;66.15;102344.28;5018939;28;45480;-80
2021/09/01 04:59:47;;;;;;;;;0.00;0.00;;;;;16.25;65.89;102301.13;5045131;27;46908;-80
2021/09/01 05:02:13;;;;;;;;;0.75;0.75;;;;;16.29;66.06;102305.56;5075867;27;45491;-80
2021/09/01 05:04:38;;;;;;;;;0.00;0.00;;;;;16.37;65.74;102310.88;5085998;27;45306;-79
2021/09/01 05:07:03;;;;;;;;;2.00;2.00;;;;;16.54;66.15;102351.34;5018654;28;45598;-79
2021/09/01 05:09:29;;;;;;;;;2.00;1.00;;;;;16.61;65.73;102340.88;5054080;27;48098;-79
2021/09/01 05:11:54;;;;;;;;;0.50;0.00;;;;;16.56;65.83;102335.56;5032326;27;45414;-79
2021/09/01 05:14:19;;;;;;;;;1.00;0.00;;;;;16.61;65.98;102357.56;5091933;27;45569;-79
2021/09/01 05:16:45;;;;;;;;;0.75;0.75;;;;;16.49;65.56;102345.16;5005947;27;45699;-79
2021/09/01 05:19:11;;;;;;;;;0.75;0.75;;;;;16.24;65.85;102316.03;4997894;28;48445;-79
2021/09/01 05:21:41;;;;;;;;;2.00;1.00;;;;;16.34;66.31;102338.00;5008930;28;45590;-79
2021/09/01 05:24:09;;;;;;;;;2.00;1.00;;;;;16.45;65.72;102351.28;5027634;28;45353;-79
2021/09/01 05:26:34;;;;;;;;;0.50;0.50;;;;;16.24;66.29;102333.53;5028749;28;45440;-80
2021/09/01 05:29:03;;;;;;;;;1.75;1.75;;;;;16.34;66.47;102346.78;5023645;27;47477;-80
2021/09/01 05:31:31;;;;;;;;;0.25;0.25;;;;;16.13;66.07;102307.13;5047010;28;45290;-80
2021/09/01 05:34:00;;;;;;;;;0.25;0.25;;;;;16.36;66.23;102343.28;5049167;28;44764;-80
2021/09/01 05:36:26;;;;;;;;;1.00;1.00;;;;;16.45;66.08;102353.91;5038467;28;45225;-81
2021/09/01 05:38:54;;;;;;;;;0.00;0.00;;;;;16.31;66.11;102338.88;5049079;27;46517;-80
2021/09/01 05:41:20;;;;;;;;;0.00;0.00;;;;;16.42;66.08;102367.00;5023969;28;45348;-81
2021/09/01 05:43:45;;;;;;;;;0.25;0.25;;;;;16.41;66.28;102358.22;5052442;28;45391;-80
2021/09/01 05:46:12;;;;;;;;;0.00;0.00;;;;;16.23;66.23;102330.00;5038262;28;45291;-80
2021/09/01 05:48:38;;;;;;;;;2.00;1.00;;;;;16.53;65.90;102375.88;5032029;28;47184;-80
2021/09/01 05:51:05;;;;;;;;;1.00;0.50;;;;;16.27;66.35;102336.19;5035046;27;45269;-81
2021/09/01 05:53:30;;;;;;;;;0.50;0.50;;;;;16.45;66.34;102353.91;5018518;28;45301;-80
2021/09/01 05:55:57;;;;;;;;;0.00;0.00;;;;;16.63;66.16;102382.09;5077487;27;45356;-80
2021/09/01 05:58:23;;;;;;;;;1.00;1.00;;;;;16.48;65.50;102337.25;5085568;27;48145;-81
2021/09/01 06:00:57;;;;;;;;;1.00;1.00;;;;;16.66;65.42;102361.09;5041125;28;45207;-81
2021/09/01 06:03:26;;;;;;;;;0.00;0.00;;;;;16.78;65.10;102378.72;5066781;27;45474;-81
2021/09/01 06:05:56;;;;;;;;;1.00;1.00;;;;;16.77;65.33;102379.59;5042313;27;45373;-81
2021/09/01 06:08:24;;;;;;;;;0.00;0.00;;;;;16.77;65.52;102381.34;5106490;27;48227;-80
2021/09/01 06:10:56;;;;;;;;;2.00;1.00;;;;;16.77;65.30;102384.84;5023656;27;44966;-80
2021/09/01 06:13:22;;;;;;;;;0.00;0.00;;;;;16.58;65.91;102371.56;5021857;28;45387;-81
2021/09/01 06:15:48;;;;;;;;;0.00;0.00;;;;;16.52;65.44;102360.09;5051524;27;45588;-81
2021/09/01 06:18:14;;;;;;;;;0.00;0.00;;;;;16.25;65.70;102314.25;5025495;28;45600;-81
2021/09/01 06:20:40;;;;;;;;;1.00;0.00;;;;;16.49;66.05;102354.78;5029245;27;45416;-81
2021/09/01 06:23:06;;;;;;;;;1.25;1.25;;;;;16.28;65.76;102317.81;5030706;27;45520;-81
2021/09/01 06:25:31;;;;;;;;;0.00;0.00;;;;;16.40;65.88;102345.06;5016385;28;45718;-81
2021/09/01 06:27:57;;;;;;;;;2.50;1.50;;;;;16.26;65.94;102318.66;5032001;28;46270;-81
2021/09/01 06:30:23;;;;;;;;;1.00;1.00;;;;;16.50;66.09;102357.44;5024146;27;45452;-80
2021/09/01 06:32:48;;;;;;;;;3.00;2.00;;;;;16.61;66.05;102362.81;5033903;27;45498;-81
2021/09/01 06:35:14;;;;;;;;;0.75;0.75;;;;;16.50;66.15;102339.03;5021118;28;45508;-81
2021/09/01 06:37:40;;;;;;;;;0.50;0.50;;;;;16.62;65.64;102346.16;5019501;27;45332;-81
2021/09/01 06:40:07;;;;;;;;;0.00;0.00;;;;;16.78;65.72;102360.31;5019283;27;45621;-80
2021/09/01 06:42:33;;;;;;;;;1.50;1.00;;;;;16.58;65.66;102342.63;5020198;28;45306;-81
2021/09/01 06:44:58;;;;;;;;;1.50;1.50;;;;;16.68;65.74;102364.63;5036326;27;45448;-81
2021/09/01 06:47:23;;;;;;;;;1.25;1.25;;;;;16.81;65.53;102364.72;5022359;27;47242;-81
2021/09/01 06:49:49;;;;;;;;;2.25;0.75;;;;;16.82;65.84;102363.88;5018729;27;45466;-79
2021/09/01 06:52:14;;;;;;;;;0.00;0.00;;;;;16.69;65.47;102328.69;5014642;27;45471;-79
2021/09/01 06:54:40;;;;;;;;;0.25;0.25;;;;;16.81;65.24;102351.56;5021415;28;45576;-80
2021/09/01 06:57:05;;;;;;;;;0.25;0.25;;;;;16.94;65.20;102360.47;5016598;27;48025;-79
2021/09/01 06:59:30;;;;;;;;;1.00;1.00;;;;;17.06;65.20;102357.94;5020261;28;45387;-80
2021/09/01 07:01:56;;;;;;;;;0.50;0.50;;;;;17.01;65.02;102341.22;5020447;28;45444;-81
2021/09/01 07:04:21;;;;;;;;;0.00;0.00;;;;;16.91;65.08;102334.97;5019419;28;45445;-78
2021/09/01 07:06:47;;;;;;;;;0.75;0.75;;;;;16.94;65.15;102345.53;5019156;27;45439;-77
2021/09/01 07:09:12;;;;;;;;;0.50;0.50;;;;;16.87;65.21;102332.34;5072151;27;45502;-80
2021/09/01 07:11:37;;;;;;;;;0.50;0.00;;;;;16.91;64.88;102336.75;5034504;27;45487;-79
2021/09/01 07:14:03;;;;;;;;;2.75;1.00;;;;;16.92;64.87;102334.13;5020849;28;45451;-80
2021/09/01 07:16:28;;;;;;;;;1.00;1.00;;;;;17.12;64.95;102359.72;5021850;27;46285;-79
2021/09/01 07:18:54;;;;;;;;;1.25;1.00;;;;;17.19;65.01;102355.41;5011583;27;45487;-80
2021/09/01 07:21:19;;;;;;;;;1.00;1.00;;;;;17.09;64.48;102326.38;5025526;27;45468;-81
2021/09/01 07:23:44;;;;;;;;;1.00;1.00;;;;;17.19;64.73;102336.97;5018956;28;46042;-79
2021/09/01 07:26:11;;;;;;;;;0.00;0.00;;;;;17.14;64.33;102320.28;5018628;28;45336;-79
2021/09/01 07:28:40;;;;;;;;;0.00;0.00;;;;;17.22;64.27;102324.72;5020525;27;45486;-80
2021/09/01 07:31:07;;;;;;;;;1.00;1.00;;;;;17.17;63.94;102309.78;5018666;28;45496;-80
2021/09/01 07:33:32;;;;;;;;;1.50;1.50;;;;;17.19;64.11;102311.56;5044303;27;45651;-80
2021/09/01 07:35:58;;;;;;;;;2.50;2.50;;;;;17.38;63.94;102344.97;5023793;28;46038;-78
2021/09/01 07:38:23;;;;;;;;;4.25;2.00;;;;;17.33;64.00;102337.06;5011210;28;45354;-80
2021/09/01 07:40:48;;;;;;;;;2.75;0.75;;;;;17.31;63.52;102349.34;5011868;28;45869;-75
2021/09/01 07:43:14;;;;;;;;;0.00;0.00;;;;;17.19;63.41;102329.97;5021567;27;45416;-78
2021/09/01 07:45:42;;;;;;;;;3.50;1.75;;;;;17.20;64.08;102342.25;5019487;28;47027;-79
2021/09/01 07:48:07;;;;;;;;;1.50;0.25;;;;;17.11;64.00;102326.41;5026778;27;45471;-79
2021/09/01 07:50:33;;;;;;;;;0.00;0.00;;;;;17.05;63.80;102332.47;5017764;28;45681;-79
2021/09/01 07:53:00;;;;;;;;;2.00;0.25;;;;;16.96;63.85;102335.91;5018882;28;45318;-79
2021/09/01 07:55:26;;;;;;;;;0.00;0.00;;;;;17.16;63.93;102360.63;5018649;28;46350;-79
2021/09/01 07:57:52;;;;;;;;;0.75;0.75;;;;;17.25;64.20;102362.44;5018690;28;45472;-79
2021/09/01 08:00:17;;;;;;;;;0.00;0.00;;;;;17.22;64.11;102369.44;5030366;27;45411;-79
2021/09/01 08:02:43;;;;;;;;;1.00;1.00;;;;;17.29;63.96;102361.59;5018200;28;45655;-80
2021/09/01 08:05:09;;;;;;;;;0.75;0.50;;;;;17.31;63.57;102367.75;5019103;27;46148;-80
2021/09/01 08:07:35;;;;;;;;;1.75;1.00;;;;;17.25;64.11;102342.28;5017418;28;45263;-79
2021/09/01 08:10:01;;;;;;;;;0.00;0.00;;;;;17.25;63.75;102326.50;5017560;28;45377;-80
2021/09/01 08:12:26;;;;;;;;;1.50;1.00;;;;;17.46;63.64;102353.81;5018940;28;45627;-80
2021/09/01 08:14:51;;;;;;;;;0.50;0.50;;;;;17.49;63.65;102364.38;5018541;28;45742;-80
2021/09/01 08:17:17;;;;;;;;;0.00;0.00;;;;;17.29;63.30;102324.75;5018928;27;45340;-80
2021/09/01 08:19:44;;;;;;;;;1.25;1.00;;;;;17.27;63.34;102314.22;5018951;28;45460;-81
2021/09/01 08:22:10;;;;;;;;;0.00;0.00;;;;;17.41;63.29;102326.56;5018385;28;45354;-80
2021/09/01 08:24:38;;;;;;;;;1.50;0.00;;;;;17.59;63.28;102344.22;5017928;27;47381;-81
2021/09/01 08:27:05;;;;;;;;;0.00;0.00;;;;;17.45;62.95;102305.53;5022246;28;45464;-81
2021/09/01 08:29:31;;;;;;;;;0.25;0.25;;;;;17.84;62.88;102346.97;5001898;28;45703;-81
2021/09/01 08:31:56;;;;;;;;;1.00;0.00;;;;;17.70;62.59;102320.59;5007639;27;45538;-81
2021/09/01 08:34:21;;;;;;;;;0.00;0.00;;;;;17.80;62.30;102326.75;5030005;28;45600;-81
2021/09/01 08:36:47;;;;;;;;;1.75;1.50;;;;;17.99;62.22;102343.50;5022532;27;45402;-81
2021/09/01 08:39:12;;;;;;;;;0.00;0.00;;;;;17.92;62.05;102315.38;5019436;27;45507;-81
2021/09/01 08:41:38;;;;;;;;;0.50;0.50;;;;;18.14;61.97;102353.25;5027345;28;45435;-80
2021/09/01 08:44:04;;;;;;;;;1.00;1.00;;;;;18.15;61.74;102339.19;5012451;27;46242;-80
2021/09/01 08:46:31;;;;;;;;;1.50;0.75;;;;;18.18;61.24;102335.66;5016350;28;45271;-80
2021/09/01 08:49:00;;;;;;;;;0.25;0.00;;;;;18.37;61.86;102349.75;5014259;27;45470;-79
2021/09/01 08:51:25;;;;;;;;;0.00;0.00;;;;;18.34;61.56;102339.22;5094425;27;45422;-80
2021/09/01 08:53:55;;;;;;;;;1.50;1.50;;;;;18.30;60.87;102324.28;5018553;27;45394;-81
2021/09/01 08:56:22;;;;;;;;;0.00;0.00;;;;;18.25;61.36;102319.00;5023435;28;45408;-80
2021/09/01 08:58:47;;;;;;;;;0.50;0.50;;;;;18.34;60.55;102319.00;5019189;27;45482;-83
2021/09/01 09:01:45;;;;;;;;;2.00;0.50;;;;;18.62;60.79;102360.34;5018724;27;45458;-83
2021/09/01 09:04:18;;;;;;;;;2.25;0.00;;;;;18.24;60.64;102293.50;5031711;27;46457;-82
2021/09/01 09:07:01;;;;;;;;;1.50;1.00;;;;;18.52;60.55;102332.19;5027009;27;45834;-82
2021/09/01 09:09:34;;;;;;;;;1.00;1.00;;;;;18.58;60.59;102326.94;5017672;28;45393;-82
2021/09/01 09:12:01;;;;;;;;;0.25;0.25;;;;;18.67;60.24;102342.75;5023279;27;45352;-81
2021/09/01 09:14:28;;;;;;;;;2.00;1.75;;;;;18.80;60.65;102355.97;5024277;28;45429;-81
2021/09/01 09:17:05;;;;;;;;;1.00;1.00;;;;;18.92;60.32;102347.13;5031321;27;45569;-81
2021/09/01 09:19:49;;;;;;;;;3.00;0.00;;;;;18.92;59.84;102352.41;5016001;28;45391;-80
2021/09/01 09:22:36;;;;;;;;;1.00;1.00;;;;;18.94;59.51;102345.38;5024412;27;45535;-82
2021/09/01 09:25:05;;;;;;;;;0.00;0.00;;;;;18.95;60.18;102347.13;5028570;28;47537;-81
2021/09/01 09:27:52;;;;;;;;;1.25;1.25;;;;;19.01;59.91;102341.88;5023028;28;45694;-82
2021/09/01 09:30:20;;;;;;;;;1.00;1.00;;;;;19.13;59.73;102343.63;5038767;28;45404;-82
2021/09/01 09:33:11;;;;;;;;;1.00;0.75;;;;;19.29;59.25;102343.63;4989246;28;45471;-82
2021/09/01 09:35:52;;;;;;;;;1.75;1.75;;;;;19.48;59.05;102349.72;5021144;28;46194;-84
2021/09/01 09:38:26;;;;;;;;;0.50;0.25;;;;;19.63;58.12;102340.84;4995870;28;45415;-82
2021/09/01 09:40:51;;;;;;;;;0.00;0.00;;;;;19.71;58.06;102332.91;5034745;27;44832;-81
2021/09/01 09:43:19;;;;;;;;;0.00;0.00;;;;;19.73;58.19;102339.91;5036099;28;45594;-80
2021/09/01 09:45:47;;;;;;;;;2.00;1.00;;;;;19.80;58.22;102343.44;5026034;28;46243;-79
2021/09/01 09:48:12;;;;;;;;;0.00;0.00;;;;;19.69;57.97;102324.97;5026826;28;45617;-78
2021/09/01 09:50:46;;;;;;;;;1.00;0.75;;;;;19.77;57.85;102332.88;5016070;28;45417;-79
2021/09/01 09:53:11;;;;;;;;;0.75;0.75;;;;;19.60;57.83;102294.19;5025478;27;45595;-80
2021/09/01 09:55:37;;;;;;;;;2.00;1.00;;;;;19.53;57.60;102291.59;5009553;28;45646;-81
2021/09/01 09:58:04;;;;;;;;;0.75;0.00;;;;;19.65;57.57;102315.31;5027673;27;45849;-81
2021/09/01 10:00:30;;;;;;;;;1.00;1.00;;;;;19.77;57.76;102343.44;5036728;27;45402;-80
2021/09/01 10:02:56;;;;;;;;;1.25;1.00;;;;;19.40;57.69;102280.22;5047728;27;45543;-81
2021/09/01 10:05:27;;;;;;;;;1.75;1.75;;;;;19.57;57.80;102314.47;5019901;28;45386;-82
2021/09/01 10:07:56;;;;;;;;;1.00;0.25;;;;;19.40;57.55;102302.22;5020369;28;45418;-82
2021/09/01 10:10:21;;;;;;;;;0.00;0.00;;;;;19.60;57.41;102319.75;5008945;28;45396;-81
2021/09/01 10:12:47;;;;;;;;;0.75;0.75;;;;;19.67;57.69;102329.41;5020862;27;45636;-82
2021/09/01 10:15:27;;;;;;;;;2.00;1.00;;;;;19.78;57.58;102331.97;5020634;27;45382;-82
2021/09/01 10:17:58;;;;;;;;;0.25;0.25;;;;;19.66;57.67;102271.31;5024212;28;45513;-82
2021/09/01 10:20:26;;;;;;;;;0.25;0.25;;;;;20.08;57.13;102332.75;5022438;28;45465;-82
2021/09/01 10:23:11;;;;;;;;;4.00;1.00;;;;;20.06;57.03;102337.16;5051272;27;45508;-83
2021/09/01 10:25:43;;;;;;;;;2.00;0.00;;;;;20.15;57.19;102327.44;5020171;28;46457;-82
2021/09/01 10:28:20;;;;;;;;;0.00;0.00;;;;;20.26;56.82;102333.50;5025079;27;45333;-82
2021/09/01 10:31:14;;;;;;;;;0.00;0.00;;;;;20.36;56.31;102329.03;5032922;27;45406;-81
2021/09/01 10:33:46;;;;;;;;;0.00;0.00;;;;;20.37;56.21;102328.16;5009371;27;45632;-80
2021/09/01 10:36:24;;;;;;;;;0.25;0.25;;;;;20.46;56.63;102336.00;5024718;28;45706;-80
2021/09/01 10:38:55;;;;;;;;;1.25;0.00;;;;;20.60;55.97;102335.03;5012428;28;45392;-80
2021/09/01 10:41:27;;;;;;;;;1.75;1.00;;;;;20.36;55.61;102305.22;5022907;28;45392;-79
2021/09/01 10:44:42;;;;;;;;;2.50;1.00;;;;;20.44;55.93;102313.13;5045848;27;45613;-80
2021/09/01 10:47:07;;;;;;;;;2.75;1.00;;;;;20.44;55.57;102310.47;5021146;28;45572;-81
2021/09/01 10:49:55;;;;;;;;;0.00;0.00;;;;;20.54;55.92;102311.25;5053564;27;45798;-81
2021/09/01 10:52:21;;;;;;;;;0.75;0.75;;;;;20.63;55.75;102282.09;5023965;27;45521;-84
2021/09/01 10:54:48;;;;;;;;;2.00;1.00;;;;;20.77;55.24;102258.16;5020286;28;45335;-83
2021/09/01 10:57:25;;;;;;;;;1.00;1.00;;;;;20.99;54.56;102264.13;5019296;28;45474;-80
2021/09/01 10:59:50;;;;;;;;;0.25;0.25;;;;;21.00;54.02;102244.69;5019810;27;45330;-80
2021/09/01 11:02:18;;;;;;;;;1.25;1.25;;;;;21.29;53.35;102278.78;5030774;28;45437;-83
2021/09/01 11:04:49;;;;;;;;;0.00;0.00;;;;;21.52;53.56;102292.63;5020443;28;45354;-77
2021/09/01 11:07:21;;;;;;;;;0.50;0.25;;;;;21.49;53.54;102290.03;5025495;28;45455;-77
2021/09/01 11:09:59;;;;;;;;;0.00;0.00;;;;;21.43;52.47;102284.78;5024666;27;45358;-83
2021/09/01 11:12:26;;;;;;;;;1.00;1.00;;;;;21.31;52.96;102264.63;5021503;28;45464;-82
2021/09/01 11:14:52;;;;;;;;;0.25;0.25;;;;;21.37;52.83;102280.47;5006127;27;45640;-82
2021/09/01 11:17:21;;;;;;;;;1.00;1.00;;;;;21.18;52.89;102290.41;5019612;28;47321;-82
2021/09/01 11:19:53;;;;;;;;;1.75;0.25;;;;;21.13;53.40;102282.50;5078882;27;45370;-81
2021/09/01 11:22:26;;;;;;;;;1.00;1.00;;;;;20.97;53.11;102254.44;5009199;27;45448;-82
2021/09/01 11:25:00;;;;;;;;;0.50;0.00;;;;;21.14;53.06;102272.78;5018889;28;45484;-83